Bei Facebook empfehlenBei Twitter postenGoogle plusPinterest

Das Wetter im Erzgebirge am 10.06.2015

Wetter und Klima am 10.06.2015 Holzhau im Erzgebirge (630m ü.NN)
Letzte gemessene Temperatur und Uhrzeit der Messung23:45:00 Uhr7.10 °C
Temperatur (Maximum / Höchstwert) und Uhrzeit der Messung15:00:00 Uhr19.00 °C
Temperatur (Minimum / Tiefstwert) und Uhrzeit der Messung23:45:007.10 °C
Errechneter Absolutwert der Temperaturschwankungen zwischen Tmin und Tmax des Tages11.90 K
Errechnete Tagesmitteltemperatur12.56979 °C
Gesamt - Niederschlag des Tages (in flüssiger Form)0.00 Liter / m²
Luftdruck (Maximum / Höchstwert) und Zeitpunkt der Messung00:30:00 Uhr1024.20 hPa
Luftdruck (Minimum / Tiefstwert) und Zeitpunkt der Messung21:00:00 Uhr1021.70 hPa
Errechneter Absolutwert der Luftdruckschwankungen des Tages2.50 hPa
Höchste gemessene Windgeschwindigkeit und Uhrzeit der Messung06:30:00 Uhr4.32 km/h
Errechnete Windhäufigkeit in Relation zu den Messwerten des Tages2.08333 %
Niedrigste Windkühle (Windchill) und Zeitpunkt der Messung23:45:00 Uhr7.10 °C
Taupunkt (Maximum / Höchstwert) und Uhrzeit der Messung14:30:00 Uhr11.50 °C
Taupunkt (Minimum / Tiefstwert) und Uhrzeit der Messung23:45:005.40 °C
Anzahl der automatisch eingelesenen Messwerte 96

Detaillierte Wetter- und Klima- Messwerte für den 10.06.2015 in Holzhau im Erzgebirge (630m ü.NN)
ZeitTemperaturLuftdruckRel. LuftfeuchteWindWindrichtungWindchillTaupunktNiederschlag l/m²
23:45:007.10 °C1022.50 hPa89.00 %5.40 °C 
23:30:007.40 °C1022.60 hPa88.00 %5.50 °C 
23:15:007.60 °C1022.50 hPa88.00 %5.70 °C 
23:00:007.80 °C1022.40 hPa87.00 %5.80 °C 
22:45:007.90 °C1022.40 hPa86.00 %5.70 °C 
22:30:008.30 °C1022.40 hPa86.00 %6.10 °C 
22:15:008.60 °C1022.40 hPa84.00 %6.10 °C 
22:00:009.20 °C1022.20 hPa84.00 %6.60 °C 
21:45:009.80 °C1022.20 hPa82.00 %6.90 °C 
21:30:0010.40 °C1022.00 hPa80.00 %7.10 °C 
21:15:0011.30 °C1021.80 hPa78.00 %7.60 °C 
21:00:0012.30 °C1021.70 hPa76.00 %8.20 °C 
20:45:0013.50 °C1021.70 hPa73.00 %8.80 °C 
20:30:0014.20 °C1021.80 hPa71.00 %9.00 °C 
20:15:0014.90 °C1021.80 hPa68.00 %9.10 °C 
20:00:0015.60 °C1022.00 hPa66.00 %9.30 °C 
19:45:0016.10 °C1022.00 hPa65.00 %9.50 °C 
19:30:0016.10 °C1022.10 hPa65.00 %9.50 °C 
19:15:0016.20 °C1021.90 hPa65.00 %9.60 °C 
19:00:0016.90 °C1022.00 hPa63.00 %9.80 °C 
18:45:0016.60 °C1021.90 hPa66.00 %10.20 °C 
18:30:0015.80 °C1022.00 hPa67.00 %9.70 °C 
18:15:0016.10 °C1022.10 hPa64.00 %9.30 °C 
18:00:0016.30 °C1022.30 hPa65.00 %9.70 °C 
17:45:0016.80 °C1022.40 hPa63.00 %9.70 °C 
17:30:0017.60 °C1022.60 hPa63.00 %10.50 °C 
17:15:0017.90 °C1022.60 hPa64.00 %11.00 °C 
17:00:0017.80 °C1022.70 hPa62.00 %10.40 °C 
16:45:0017.40 °C1022.80 hPa63.00 %10.30 °C 
16:30:0018.10 °C1022.90 hPa61.00 %10.50 °C 
16:15:0018.30 °C1023.00 hPa62.00 %10.90 °C 
16:00:0018.80 °C1022.80 hPa60.00 %10.90 °C 
15:45:0018.80 °C1023.10 hPa62.00 %11.40 °C 
15:30:0018.40 °C1023.30 hPa62.00 %11.00 °C 
15:15:0018.40 °C1023.20 hPa61.00 %10.70 °C 
15:00:0019.00 °C1023.40 hPa61.00 %11.30 °C 
14:45:0018.80 °C1023.20 hPa61.00 %11.10 °C 
14:30:0018.40 °C1023.40 hPa64.00 %11.50 °C 
14:15:0017.80 °C1023.40 hPa65.00 %11.10 °C 
14:00:0017.80 °C1023.40 hPa65.00 %11.10 °C 
13:45:0017.20 °C1023.50 hPa66.00 %10.80 °C 
13:30:0017.20 °C1023.80 hPa67.00 %11.00 °C 
13:15:0016.90 °C1023.60 hPa67.00 %10.70 °C 
13:00:0016.70 °C1023.90 hPa68.00 %10.80 °C 
12:45:0017.20 °C1023.90 hPa68.00 %11.20 °C 
12:30:0016.80 °C1023.90 hPa71.00 %11.50 °C 
12:15:0016.50 °C1023.80 hPa72.00 %11.40 °C 
12:00:0015.80 °C1023.80 hPa71.00 %10.60 °C 
11:45:0015.80 °C1023.70 hPa74.00 %11.20 °C 
11:30:0014.90 °C1023.90 hPa75.00 %10.50 °C 
11:15:0014.70 °C1023.90 hPa75.00 %10.30 °C 
11:00:0014.90 °C1023.80 hPa74.00 %10.30 °C 
10:45:0015.20 °C1023.90 hPa76.00 %11.00 °C 
10:30:0014.50 °C1023.50 hPa79.00 %10.90 °C 
10:15:0014.10 °C1023.70 hPa80.00 %10.70 °C 
10:00:0013.80 °C1023.50 hPa80.00 %10.40 °C 
09:45:0013.10 °C1023.70 hPa81.00 %9.90 °C 
09:30:0013.10 °C1023.50 hPa81.00 %9.90 °C 
09:15:0013.30 °C1023.60 hPa82.00 %10.30 °C 
09:00:0012.30 °C1023.50 hPa84.00 %9.70 °C 
08:45:0011.90 °C1023.50 hPa85.00 %9.50 °C 
08:30:0011.40 °C1023.30 hPa87.00 %9.30 °C 
08:15:0010.90 °C1023.30 hPa88.00 %9.00 °C 
08:00:0010.60 °C1023.60 hPa89.00 %8.90 °C 
07:45:0010.30 °C1023.30 hPa90.00 %8.70 °C 
07:30:0010.00 °C1023.30 hPa91.00 %8.60 °C 
07:15:009.80 °C1023.10 hPa92.00 %8.60 °C 
07:00:009.30 °C1023.10 hPa92.00 %8.10 °C 
06:45:009.00 °C1023.30 hPa93.00 %7.90 °C 
06:30:008.70 °C1023.10 hPa93.00 %4.32 km/hS8.70 °C7.60 °C 
06:15:008.60 °C1023.10 hPa93.00 %7.50 °C 
06:00:008.40 °C1023.10 hPa93.00 %7.30 °C 
05:45:008.30 °C1023.10 hPa93.00 %7.20 °C 
05:30:008.20 °C1023.10 hPa93.00 %7.10 °C 
05:15:008.10 °C1023.10 hPa93.00 %7.00 °C 
05:00:008.10 °C1023.20 hPa93.00 %2.88 km/hSO8.10 °C7.00 °C 
04:45:008.10 °C1023.10 hPa93.00 %7.00 °C 
04:30:008.10 °C1023.00 hPa93.00 %7.00 °C 
04:15:008.20 °C1023.10 hPa93.00 %7.10 °C 
04:00:008.30 °C1023.20 hPa93.00 %7.20 °C 
03:45:008.30 °C1023.40 hPa93.00 %7.20 °C 
03:30:008.30 °C1023.40 hPa93.00 %7.20 °C 
03:15:008.20 °C1023.40 hPa93.00 %7.10 °C 
03:00:008.20 °C1023.60 hPa93.00 %7.10 °C 
02:45:008.20 °C1023.60 hPa93.00 %7.10 °C 
02:30:008.20 °C1023.60 hPa93.00 %7.10 °C 
02:15:008.20 °C1023.70 hPa93.00 %7.10 °C 
02:00:008.30 °C1023.80 hPa93.00 %7.20 °C 
01:45:008.30 °C1023.80 hPa93.00 %7.20 °C 
01:30:008.30 °C1023.80 hPa93.00 %7.20 °C 
01:15:008.30 °C1024.00 hPa93.00 %7.20 °C 
01:00:008.30 °C1024.00 hPa93.00 %7.20 °C 
00:45:008.30 °C1024.00 hPa93.00 %7.20 °C 
00:30:008.30 °C1024.20 hPa93.00 %7.20 °C 
00:15:008.30 °C1024.00 hPa93.00 %7.20 °C 
00:00:008.30 °C1024.00 hPa93.00 %7.20 °C 

Permanenter Link zu dieser Seite: Wetter im Erzgebirge am 10.06.2015
Performance-Info: Die Erstellung der Seite / Statistik(en) / Tabelle(n) erforderte 5 Datenbankserver-Abfrage(n) und dauerte 99 Millisekunden. (Dieser Messwert ist von der Gesamt-Auslastung des Servers abhängig.)
Erzgebirge - Wetter | Erzgebirge - Wetter (Mobilgeräte) | Komplette Klimadatenbank